LUKK/KIV METAR and TAF weather

Enter ICAO airport designator
Station Type Date Time Source
LUKK METAR 2020/02/16 20:00 UTC NOAA

LUKK 162000Z 18007KT CAVOK 02/M03 Q1030 R08/CLRD// NOSIG


Station Type Date Time Source
LUKK Decoded METAR 2020/02/16 20:00 UTC NOAA

Chisinau International Airport, Moldova (LUKK) 46-55-40N 028-55-51E
Feb 16, 2020 - 03:00 PM EST / 2020.02.16 2000 UTC
Wind: from the S (180 degrees) at 8 MPH (7 KT):0
Visibility: greater than 7 mile(s):0
Temperature: 35 F (2 C)
Windchill: 28 F (-2 C):1
Dew Point: 26 F (-3 C)
Relative Humidity: 69%
Pressure (altimeter): 30.42 in. Hg (1030 hPa)
ob: LUKK 162000Z 18007KT CAVOK 02/M03 Q1030 R08/CLRD// NOSIG
cycle: 20

Station Type Date Time Source
LUKK TAF 2020/02/16 18:20 UTC NOAA

TAF LUKK 161720Z 1618/1718 16008KT CAVOK
BECMG 1706/1708 19014KT
TEMPO 1709/1714 21020G30KT
BECMG 1715/1717 17008KT

Example: see airport list